Millenium Air

Millenium Air Since 1998



 METAR AND TAF INFORMATION
METAR FOR LICA
ADDS - METARS form results

(1132 UTC 02 March 2021)
Data provider http://aviationweather.gov/metar/data/
 
METAR text: LICA 021120Z AUTO 26007KT 9999 NCD 16/07 Q1030
Conditions at: LICA (LAMEZIA TERME , IT) observed 1120 UTC 02 March 2021
Temperature: 16.0°C (61°F)
Dewpoint: 7.0°C (45°F) [RH = 55%]
Pressure (altimeter): 30.41 inches Hg (1030.0 mb)
Winds: from the W (260 degrees) at 8 MPH (7 knots; 3.6 m/s)
Visibility: 6 or more miles (10+ km)
Ceiling: at least 12,000 feet AGL
Clouds: sky clear below 12,000 feet AGL
Weather: no significant weather observed at this time

METAR text: LICA 021050Z AUTO 25006KT 210V280 9999 NCD 17/07 Q1030
Conditions at: LICA (LAMEZIA TERME , IT) observed 1050 UTC 02 March 2021
Temperature: 17.0°C (63°F)
Dewpoint: 7.0°C (45°F) [RH = 52%]
Pressure (altimeter): 30.41 inches Hg (1030.0 mb)
Winds: from the WSW (250 degrees) at 7 MPH (6 knots; 3.1 m/s)
Visibility: 6 or more miles (10+ km)
Ceiling: at least 12,000 feet AGL
Clouds: sky clear below 12,000 feet AGL
Weather: no significant weather observed at this time

Forecast for: LICA (LAMEZIA TERME , IT)
Text: TAF LICA 021100Z 0212/0312 27010KT 9999 SCT030
Forecast period: 1200 to 1600 UTC 02 March 2021
Forecast type: FROM: standard forecast or significant change
Winds: from the W (270 degrees) at 12 MPH (10 knots; 5.1 m/s)
Visibility: 6 or more miles (10+ km)
Ceiling: at least 12,000 feet AGL
Clouds: scattered clouds at 3000 feet AGL
Weather: no significant weather forecast for this period
Text: BECMG 0216/0218 07007KT
Forecast period: 1600 UTC 02 March 2021 to 0800 UTC 03 March 2021
Forecast type: BECOMING: Conditions expected to become as follows by 1800 UTC 02 March 2021
Winds: from the ENE (70 degrees) at 8 MPH (7 knots; 3.6 m/s)
Visibility: 6 or more miles (10+ km)
Ceiling: at least 12,000 feet AGL
Clouds: scattered clouds at 3000 feet AGL
Weather: no significant weather forecast for this period
Text: BECMG 0308/0310 27010KT
Forecast period: 0800 to 1200 UTC 03 March 2021
Forecast type: BECOMING: Conditions expected to become as follows by 1000 UTC 03 March 2021
Winds: from the W (270 degrees) at 12 MPH (10 knots; 5.1 m/s)
Visibility: 6 or more miles (10+ km)
Ceiling: at least 12,000 feet AGL
Clouds: scattered clouds at 3000 feet AGL
Weather: no significant weather forecast for this period

 AIRPORT MAP

 RUNWAY INFORMATION
Runway 10 Runway length 7920 ft Runway width 148 ft
Runway elevation 20 ft Runway displaced threshold 348 ft Runway heading 99
Runway 28 Runway length 7920 ft Runway width 148 ft
Runway elevation 39 ft Runway displaced threshold 351 ft Runway heading 279

 AIRPORT FREQUENCIES
Type APP Name APP Frequency 118.8 MHZ
Type TWR Name TWR Frequency 119.7 MHZ

 AIRPORT NEAR NAVIGATION AIDS
Type VOR-DME Name Lamezia Terme Frequency 112500 KHZ